Time;durP1;ratioP1;P1;durP2;ratioP2;P2;SDS_P1;SDS_P2;PMS_P1;PMS_P2;Temp;Humidity;BMP_temperature;BMP_pressure;BME280_temperature;BME280_humidity;BME280_pressure;Samples;Min_cycle;Max_cycle;Signal;HPM_P1;HPM_P2
2023/02/05 00:02:06;;;;;;;21.60;11.15;;;9.50;99.90;;;;;;5025799;28;20504;-48
2023/02/05 00:04:32;;;;;;;24.55;10.82;;;9.60;99.90;;;;;;5030519;28;20122;-44
2023/02/05 00:06:58;;;;;;;27.27;11.38;;;9.50;99.90;;;;;;5023315;28;20046;-42
2023/02/05 00:09:24;;;;;;;29.27;11.82;;;9.60;99.90;;;;;;5031102;28;20052;-39
2023/02/05 00:11:49;;;;;;;23.45;10.90;;;9.60;99.90;;;;;;5033094;28;20083;-41
2023/02/05 00:14:15;;;;;;;29.23;11.55;;;9.60;99.90;;;;;;5032062;28;20051;-42
2023/02/05 00:16:41;;;;;;;28.02;11.20;;;9.50;99.90;;;;;;5029125;28;20021;-42
2023/02/05 00:19:06;;;;;;;30.05;11.38;;;9.50;99.90;;;;;;5032060;28;20056;-45
2023/02/05 00:21:32;;;;;;;21.40;10.68;;;9.50;99.90;;;;;;5028927;28;20048;-40
2023/02/05 00:23:58;;;;;;;21.30;10.50;;;9.50;99.90;;;;;;5032077;28;20036;-43
2023/02/05 00:26:23;;;;;;;28.48;12.57;;;9.40;99.90;;;;;;5028402;28;20062;-42
2023/02/05 00:28:49;;;;;;;24.27;10.75;;;9.30;99.90;;;;;;5034401;28;20041;-42
2023/02/05 00:31:18;;;;;;;25.38;10.93;;;9.30;99.90;;;;;;5034625;28;20026;-42
2023/02/05 00:33:45;;;;;;;25.27;10.85;;;9.30;99.90;;;;;;5028844;28;20044;-45
2023/02/05 00:36:12;;;;;;;21.10;9.82;;;9.30;99.90;;;;;;5027788;28;20367;-43
2023/02/05 00:38:37;;;;;;;28.23;10.77;;;9.30;99.90;;;;;;5033477;28;20061;-41
2023/02/05 00:41:03;;;;;;;21.98;11.00;;;9.30;99.90;;;;;;5030596;28;20497;-45
2023/02/05 00:43:29;;;;;;;23.58;9.90;;;9.30;99.90;;;;;;5030848;28;20072;-41
2023/02/05 00:45:55;;;;;;;24.75;10.65;;;9.30;99.90;;;;;;5033708;28;20041;-40
2023/02/05 00:48:21;;;;;;;27.92;12.02;;;9.30;99.90;;;;;;5035954;28;20026;-42
2023/02/05 00:50:48;;;;;;;24.85;11.55;;;9.30;99.90;;;;;;5021034;28;20500;-43
2023/02/05 00:53:14;;;;;;;22.38;10.68;;;9.30;99.90;;;;;;5020788;28;20025;-40
2023/02/05 00:55:39;;;;;;;25.05;11.15;;;9.30;99.90;;;;;;5032486;28;20432;-42
2023/02/05 00:58:05;;;;;;;22.30;10.55;;;9.20;99.90;;;;;;5033818;28;20041;-41
2023/02/05 01:00:32;;;;;;;29.25;11.68;;;9.20;99.90;;;;;;5030676;28;20022;-42
2023/02/05 01:02:57;;;;;;;27.50;12.35;;;9.30;99.90;;;;;;5033582;28;20048;-44
2023/02/05 01:05:23;;;;;;;25.98;10.55;;;9.20;99.90;;;;;;5018843;28;20029;-46
2023/02/05 01:07:49;;;;;;;22.70;10.85;;;9.20;99.90;;;;;;5030884;28;20028;-42
2023/02/05 01:10:14;;;;;;;25.50;11.05;;;9.20;99.90;;;;;;5020690;28;20025;-39
2023/02/05 01:12:40;;;;;;;24.30;10.43;;;9.20;99.90;;;;;;5030790;28;20040;-42
2023/02/05 01:15:07;;;;;;;20.10;10.55;;;9.20;99.90;;;;;;5032759;28;20083;-41
2023/02/05 01:17:33;;;;;;;24.35;11.45;;;9.20;99.90;;;;;;5033525;28;20112;-46
2023/02/05 01:19:59;;;;;;;25.23;11.38;;;9.20;99.90;;;;;;5028973;28;20517;-42
2023/02/05 01:22:24;;;;;;;31.13;12.75;;;9.10;99.90;;;;;;5029692;28;20035;-43
2023/02/05 01:24:50;;;;;;;27.90;11.82;;;9.10;99.90;;;;;;5033300;28;20465;-41
2023/02/05 01:27:35;;;;;;;29.42;10.73;;;9.10;99.90;;;;;;5022994;28;20026;-40
2023/02/05 01:30:01;;;;;;;31.58;11.93;;;9.10;99.90;;;;;;5032271;28;20042;-41
2023/02/05 01:32:28;;;;;;;21.23;10.27;;;9.00;99.90;;;;;;5025759;28;20394;-41
2023/02/05 01:34:54;;;;;;;24.35;10.68;;;9.00;99.90;;;;;;5027244;28;20029;-39
2023/02/05 01:37:19;;;;;;;27.90;11.07;;;9.00;99.90;;;;;;5030218;28;20428;-43
2023/02/05 01:39:45;;;;;;;28.88;10.68;;;9.00;99.90;;;;;;5029290;28;20025;-47
2023/02/05 01:42:24;;;;;;;20.80;9.95;;;9.00;99.90;;;;;;5028884;28;20109;-45
2023/02/05 01:45:20;;;;;;;19.80;10.15;;;9.00;99.90;;;;;;5020646;28;20465;-44
2023/02/05 01:47:56;;;;;;;18.77;9.88;;;9.00;99.90;;;;;;5031789;28;20068;-42
2023/02/05 01:50:54;;;;;;;21.70;9.98;;;9.00;99.90;;;;;;5030979;28;20385;-43
2023/02/05 01:53:28;;;;;;;23.52;9.73;;;9.00;99.90;;;;;;5030989;28;20104;-42
2023/02/05 01:55:58;;;;;;;21.83;9.43;;;9.10;99.90;;;;;;5031373;28;20509;-42
2023/02/05 01:58:26;;;;;;;23.83;9.95;;;9.10;99.90;;;;;;5042845;28;20515;-41
2023/02/05 02:00:52;;;;;;;20.88;9.52;;;9.00;99.90;;;;;;5031089;28;20535;-42
2023/02/05 02:03:18;;;;;;;20.02;9.23;;;9.00;99.90;;;;;;5024801;28;20137;-43
2023/02/05 02:05:44;;;;;;;27.23;9.38;;;9.00;99.90;;;;;;5015476;28;20498;-41
2023/02/05 02:08:11;;;;;;;18.52;7.97;;;9.00;99.90;;;;;;5015268;28;20079;-39
2023/02/05 02:10:40;;;;;;;23.33;8.88;;;9.00;99.90;;;;;;5019122;28;20021;-42
2023/02/05 02:13:06;;;;;;;18.25;7.70;;;9.00;99.90;;;;;;5027415;28;20128;-41
2023/02/05 02:15:32;;;;;;;18.50;7.68;;;9.00;99.90;;;;;;5025578;28;20068;-38
2023/02/05 02:21:07;;;;;;;22.27;7.93;;;9.00;99.90;;;;;;5015820;28;20072;-35
2023/02/05 02:23:49;;;;;;;17.58;7.07;;;9.00;99.90;;;;;;5029445;28;20539;-40
2023/02/05 02:26:41;;;;;;;15.68;6.25;;;9.00;99.90;;;;;;5012729;28;20500;-42
2023/02/05 02:29:13;;;;;;;11.70;5.55;;;8.90;99.90;;;;;;5031013;28;20079;-41
2023/02/05 02:31:51;;;;;;;8.85;4.80;;;8.90;99.90;;;;;;5016743;28;20520;-41
2023/02/05 02:34:31;;;;;;;11.02;5.75;;;8.90;99.90;;;;;;5029419;28;20429;-41
2023/02/05 02:37:06;;;;;;;10.85;4.93;;;8.90;99.90;;;;;;5028207;28;20039;-42
2023/02/05 02:39:51;;;;;;;13.35;5.35;;;8.80;99.90;;;;;;5012437;28;20044;-42
2023/02/05 02:42:28;;;;;;;7.28;3.58;;;8.80;99.90;;;;;;5020812;28;20041;-41
2023/02/05 02:45:00;;;;;;;9.98;4.43;;;8.80;99.90;;;;;;5032148;28;20112;-45
2023/02/05 02:47:31;;;;;;;7.03;4.20;;;8.80;99.90;;;;;;5032392;28;20064;-41
2023/02/05 02:50:12;;;;;;;10.95;4.70;;;8.70;99.90;;;;;;5025653;28;20029;-40
2023/02/05 02:52:41;;;;;;;5.22;3.88;;;8.70;99.90;;;;;;5025257;28;20025;-42
2023/02/05 02:55:10;;;;;;;6.25;4.07;;;8.60;99.90;;;;;;5032372;28;20083;-40
2023/02/05 02:57:39;;;;;;;7.18;3.00;;;8.60;99.90;;;;;;5027137;28;20512;-43
2023/02/05 03:00:12;;;;;;;8.85;3.35;;;8.70;99.90;;;;;;5034556;28;20499;-40
2023/02/05 03:02:39;;;;;;;9.02;2.60;;;8.70;99.90;;;;;;5035091;28;20029;-41
2023/02/05 03:05:13;;;;;;;9.48;3.20;;;8.70;99.90;;;;;;5035853;28;20033;-43
2023/02/05 03:07:46;;;;;;;7.57;2.83;;;8.70;99.90;;;;;;5033374;28;20112;-42
2023/02/05 03:10:39;;;;;;;7.47;2.22;;;8.70;99.90;;;;;;5026079;28;20065;-41
2023/02/05 03:13:07;;;;;;;6.07;2.92;;;8.70;99.90;;;;;;5015927;28;20038;-41
2023/02/05 03:15:33;;;;;;;7.80;2.25;;;8.80;99.90;;;;;;5016064;28;20405;-41
2023/02/05 03:17:58;;;;;;;8.07;2.80;;;8.80;99.90;;;;;;5022772;28;20119;-43
2023/02/05 03:20:28;;;;;;;7.97;2.33;;;8.80;99.90;;;;;;5015939;28;20105;-41
2023/02/05 03:22:55;;;;;;;3.28;1.90;;;8.80;99.90;;;;;;5015746;28;20037;-42
2023/02/05 03:25:22;;;;;;;8.43;2.38;;;8.90;99.90;;;;;;5025284;28;20084;-42
2023/02/05 03:27:51;;;;;;;4.07;1.90;;;8.90;99.90;;;;;;5017361;28;20029;-34
2023/02/05 03:30:17;;;;;;;7.00;2.65;;;8.90;99.90;;;;;;5034268;28;20048;-39
2023/02/05 03:32:58;;;;;;;10.65;2.40;;;8.80;99.90;;;;;;5035420;28;20026;-39
2023/02/05 03:35:31;;;;;;;6.55;2.33;;;8.90;99.90;;;;;;5027373;28;20488;-35
2023/02/05 03:38:32;;;;;;;6.45;2.28;;;8.90;99.90;;;;;;5026522;28;20033;-38
2023/02/05 03:41:54;;;;;;;1.95;1.38;;;8.80;99.90;;;;;;5032533;28;20033;-38
2023/02/05 03:44:40;;;;;;;3.05;1.88;;;8.80;99.90;;;;;;5029938;28;20517;-39
2023/02/05 03:47:22;;;;;;;5.95;1.90;;;8.80;99.90;;;;;;5015058;28;20041;-35
2023/02/05 03:50:09;;;;;;;4.32;2.10;;;8.80;99.90;;;;;;5031296;28;20036;-36
2023/02/05 03:52:47;;;;;;;9.57;1.80;;;8.80;99.90;;;;;;5032053;28;20123;-37
2023/02/05 03:55:21;;;;;;;3.78;1.98;;;8.80;99.90;;;;;;5032941;28;20053;-40
2023/02/05 03:57:58;;;;;;;2.75;1.70;;;8.70;99.90;;;;;;5026030;28;20045;-40
2023/02/05 04:00:25;;;;;;;2.63;1.77;;;8.60;99.90;;;;;;5030157;28;20508;-38
2023/02/05 04:02:51;;;;;;;6.30;2.08;;;8.70;99.90;;;;;;5033698;28;20029;-39
2023/02/05 04:05:19;;;;;;;7.15;1.90;;;8.60;99.90;;;;;;5025148;28;20018;-40
2023/02/05 04:07:45;;;;;;;;;;;8.50;99.90;;;;;;5022858;28;20018;-39
2023/02/05 04:10:10;;;;;;;4.03;2.33;;;8.50;99.90;;;;;;5017808;28;19909;-37
2023/02/05 04:12:36;;;;;;;5.20;2.30;;;8.50;99.90;;;;;;5029396;28;20517;-38
2023/02/05 04:15:02;;;;;;;9.43;3.53;;;8.50;99.90;;;;;;5026406;28;21763;-38
2023/02/05 04:17:28;;;;;;;15.88;2.90;;;8.50;99.90;;;;;;5031137;28;20517;-35
2023/02/05 04:19:53;;;;;;;8.75;2.97;;;8.60;99.90;;;;;;5023505;28;20108;-35
2023/02/05 04:22:19;;;;;;;4.03;2.50;;;8.50;99.90;;;;;;5030541;28;20062;-36
2023/02/05 04:24:44;;;;;;;7.38;3.20;;;8.50;99.90;;;;;;5015225;28;20525;-38
2023/02/05 04:27:10;;;;;;;4.85;3.10;;;8.50;99.90;;;;;;5024993;28;20038;-39
2023/02/05 04:29:36;;;;;;;8.48;3.17;;;8.40;99.90;;;;;;5031110;28;20033;-37
2023/02/05 04:32:01;;;;;;;5.55;2.90;;;8.40;99.90;;;;;;5033228;28;20465;-41
2023/02/05 04:34:27;;;;;;;5.30;2.88;;;8.50;99.90;;;;;;5018523;28;20471;-36
2023/02/05 04:36:53;;;;;;;8.88;3.22;;;8.50;99.90;;;;;;5027236;28;20798;-37
2023/02/05 04:39:18;;;;;;;8.63;3.35;;;8.50;99.90;;;;;;5023440;28;20033;-39
2023/02/05 04:41:44;;;;;;;5.80;3.35;;;8.50;99.90;;;;;;5034055;28;20462;-41
2023/02/05 04:44:09;;;;;;;6.32;3.67;;;8.40;99.90;;;;;;5027314;28;20021;-38
2023/02/05 04:46:35;;;;;;;4.63;2.95;;;8.40;99.90;;;;;;5033969;28;20068;-34
2023/02/05 04:49:00;;;;;;;8.88;2.92;;;8.40;99.90;;;;;;5020470;28;20022;-40
2023/02/05 04:51:26;;;;;;;9.00;3.33;;;8.30;99.90;;;;;;5033967;28;20022;-38
2023/02/05 04:53:52;;;;;;;6.32;3.22;;;8.30;99.90;;;;;;5030176;28;20375;-40
2023/02/05 04:56:17;;;;;;;6.90;3.00;;;8.20;99.90;;;;;;5034095;28;20478;-37
2023/02/05 04:58:43;;;;;;;5.47;2.88;;;8.10;99.90;;;;;;5023446;28;20032;-41
2023/02/05 05:01:18;;;;;;;6.72;2.80;;;8.00;99.90;;;;;;5016118;28;20045;-38
2023/02/05 05:03:44;;;;;;;5.55;2.13;;;7.90;99.90;;;;;;5025962;28;20030;-40
2023/02/05 05:06:10;;;;;;;2.05;1.70;;;7.90;99.90;;;;;;5033621;28;20044;-37
2023/02/05 05:08:36;;;;;;;2.25;1.85;;;7.80;99.90;;;;;;5022210;28;20029;-38
2023/02/05 05:11:07;;;;;;;3.95;1.67;;;7.70;99.90;;;;;;5027792;28;20037;-37
2023/02/05 05:13:34;;;;;;;3.72;1.23;;;7.70;99.90;;;;;;5023531;28;20455;-39
2023/02/05 05:16:00;;;;;;;3.45;1.45;;;7.60;99.90;;;;;;5013645;28;20145;-40
2023/02/05 05:18:26;;;;;;;4.25;1.67;;;7.60;99.90;;;;;;5025531;28;20108;-40
2023/02/05 05:20:52;;;;;;;4.25;1.27;;;7.60;99.90;;;;;;5022113;28;20120;-37
2023/02/05 05:23:18;;;;;;;4.28;2.65;;;7.60;99.90;;;;;;5032214;28;20029;-36
2023/02/05 05:25:46;;;;;;;7.88;1.33;;;7.50;99.90;;;;;;5027141;28;20026;-38
2023/02/05 05:28:13;;;;;;;8.18;0.85;;;7.50;99.90;;;;;;5013698;28;20022;-39
2023/02/05 05:30:40;;;;;;;5.00;1.90;;;7.50;99.90;;;;;;5021061;28;20100;-37
2023/02/05 05:33:06;;;;;;;5.35;1.23;;;7.40;99.90;;;;;;5022230;28;20087;-40
2023/02/05 05:35:32;;;;;;;7.35;1.45;;;7.40;99.90;;;;;;5026706;28;20485;-40
2023/02/05 05:37:58;;;;;;;11.93;1.75;;;7.30;99.90;;;;;;5029449;28;20596;-39
2023/02/05 05:45:59;;;;;;;12.30;1.30;;;7.00;99.90;;;;;;5030371;28;20107;-37
2023/02/05 05:48:25;;;;;;;16.58;0.98;;;6.90;99.90;;;;;;5028939;28;20645;-38
2023/02/05 05:50:51;;;;;;;8.98;1.15;;;6.90;99.90;;;;;;5030436;28;20068;-40
2023/02/05 05:53:16;;;;;;;10.75;1.05;;;6.80;99.90;;;;;;5026132;28;20032;-38
2023/02/05 05:55:42;;;;;;;10.07;1.30;;;6.90;99.90;;;;;;5030832;28;20033;-37
2023/02/05 05:58:08;;;;;;;5.03;0.70;;;6.90;99.90;;;;;;5027053;28;20174;-39
2023/02/05 06:00:35;;;;;;;3.58;0.60;;;6.80;99.90;;;;;;5025956;28;20025;-40
2023/02/05 06:03:03;;;;;;;5.28;0.47;;;6.90;99.90;;;;;;5031660;28;20466;-38
2023/02/05 06:05:28;;;;;;;5.63;0.68;;;6.80;99.90;;;;;;5031338;28;20104;-39
2023/02/05 06:07:54;;;;;;;6.35;0.75;;;6.90;99.90;;;;;;5029076;28;20113;-41
2023/02/05 06:10:19;;;;;;;14.63;0.90;;;6.80;99.90;;;;;;5025882;28;20021;-37
2023/02/05 06:12:45;;;;;;;16.60;1.65;;;6.90;99.90;;;;;;5023229;28;20021;-40
2023/02/05 06:15:11;;;;;;;7.10;0.95;;;6.90;99.90;;;;;;5012732;28;20064;-39
2023/02/05 06:17:36;;;;;;;9.93;0.90;;;6.90;99.90;;;;;;5014133;28;20029;-33
2023/02/05 06:20:03;;;;;;;2.65;0.50;;;6.90;99.90;;;;;;5028258;28;20036;-36
2023/02/05 06:22:28;;;;;;;8.35;0.73;;;6.80;99.90;;;;;;5028410;28;20572;-37
2023/02/05 06:24:54;;;;;;;5.25;0.52;;;6.80;99.90;;;;;;5028500;28;20121;-40
2023/02/05 06:27:20;;;;;;;5.32;2.00;;;6.80;99.90;;;;;;5017993;28;20520;-39
2023/02/05 06:29:46;;;;;;;7.40;0.65;;;6.80;99.90;;;;;;5016841;28;20088;-41
2023/02/05 06:32:12;;;;;;;8.27;1.98;;;6.90;99.90;;;;;;5035760;28;20064;-41
2023/02/05 06:34:37;;;;;;;10.00;0.80;;;6.80;99.90;;;;;;5030572;28;20389;-40
2023/02/05 06:37:03;;;;;;;5.22;1.38;;;6.80;99.90;;;;;;5035600;28;20033;-36
2023/02/05 06:39:29;;;;;;;5.75;1.35;;;6.80;99.90;;;;;;5024229;28;20525;-40
2023/02/05 06:41:55;;;;;;;11.10;1.73;;;6.80;99.90;;;;;;5022747;28;20390;-40
2023/02/05 06:44:20;;;;;;;9.73;0.70;;;6.80;99.90;;;;;;5028011;28;20048;-40
2023/02/05 06:46:46;;;;;;;16.52;1.48;;;6.80;99.90;;;;;;5029010;28;20029;-38
2023/02/05 06:49:12;;;;;;;6.35;1.15;;;6.80;99.90;;;;;;5033810;28;20036;-39
2023/02/05 06:51:37;;;;;;;20.75;2.03;;;6.80;99.90;;;;;;5028390;28;20063;-39
2023/02/05 06:54:03;;;;;;;15.15;1.98;;;6.80;99.90;;;;;;5028889;28;20022;-37
2023/02/05 06:56:28;;;;;;;6.90;1.85;;;6.80;99.90;;;;;;5034626;28;20030;-41
2023/02/05 06:58:54;;;;;;;6.13;1.45;;;6.80;99.90;;;;;;5031378;28;20492;-37
2023/02/05 07:01:20;;;;;;;13.63;1.98;;;6.90;99.90;;;;;;5035119;28;20026;-40
2023/02/05 07:03:47;;;;;;;10.75;2.45;;;6.80;99.90;;;;;;5016228;28;20033;-38
2023/02/05 07:06:13;;;;;;;11.18;2.38;;;6.80;99.90;;;;;;5016032;28;20088;-38
2023/02/05 07:08:38;;;;;;;5.60;1.10;;;6.90;99.90;;;;;;5016163;28;20034;-37
2023/02/05 07:11:04;;;;;;;19.08;1.83;;;6.90;99.90;;;;;;5031391;28;20021;-38
2023/02/05 07:13:29;;;;;;;7.78;1.92;;;6.90;99.90;;;;;;5035580;28;20080;-40
2023/02/05 07:15:55;;;;;;;8.93;1.20;;;6.90;99.90;;;;;;5017410;28;20037;-39
2023/02/05 07:18:21;;;;;;;12.43;1.20;;;6.90;99.90;;;;;;5035606;28;20389;-37
2023/02/05 07:20:47;;;;;;;5.65;1.20;;;6.90;99.90;;;;;;5035665;28;20078;-38
2023/02/05 07:23:13;;;;;;;10.88;1.27;;;6.80;99.90;;;;;;5028011;28;20030;-39
2023/02/05 07:25:39;;;;;;;5.75;1.05;;;6.80;99.90;;;;;;5025958;28;20374;-38
2023/02/05 07:28:06;;;;;;;19.30;0.90;;;6.70;99.90;;;;;;5035542;28;20029;-35
2023/02/05 07:30:35;;;;;;;6.53;1.05;;;6.70;99.90;;;;;;5031214;28;20026;-40
2023/02/05 07:33:02;;;;;;;7.95;1.40;;;6.70;99.90;;;;;;5027877;28;20029;-40
2023/02/05 07:35:29;;;;;;;13.45;1.10;;;6.70;99.90;;;;;;5035679;28;20033;-39
2023/02/05 07:37:54;;;;;;;13.00;1.75;;;6.70;99.90;;;;;;5035341;28;20107;-41
2023/02/05 07:40:20;;;;;;;18.88;2.67;;;6.70;99.90;;;;;;5027133;28;20081;-47
2023/02/05 07:42:46;;;;;;;2.70;1.33;;;6.70;99.90;;;;;;5014655;28;20030;-42
2023/02/05 07:45:12;;;;;;;12.40;1.38;;;6.80;99.90;;;;;;5014625;28;20513;-43
2023/02/05 07:47:37;;;;;;;16.50;1.67;;;6.90;99.90;;;;;;5026181;28;20051;-41
2023/02/05 07:50:04;;;;;;;10.65;1.02;;;6.80;99.90;;;;;;5034049;28;20449;-41
2023/02/05 07:52:31;;;;;;;5.73;1.13;;;6.90;99.90;;;;;;5035174;28;20470;-41
2023/02/05 07:54:56;;;;;;;14.15;1.35;;;6.90;99.90;;;;;;5033951;28;20537;-42
2023/02/05 07:57:22;;;;;;;13.65;1.63;;;6.90;99.90;;;;;;5032043;28;20118;-40
2023/02/05 07:59:47;;;;;;;12.85;1.05;;;6.90;99.90;;;;;;5014958;28;21421;-40
2023/02/05 08:02:13;;;;;;;16.20;1.92;;;6.90;99.90;;;;;;5025393;28;20029;-39
2023/02/05 08:04:39;;;;;;;12.75;1.40;;;7.00;99.90;;;;;;5033570;28;20018;-39
2023/02/05 08:07:05;;;;;;;17.25;1.55;;;7.00;99.90;;;;;;5027729;28;20036;-41
2023/02/05 08:09:30;;;;;;;19.27;2.58;;;7.00;99.90;;;;;;5032334;28;20050;-39
2023/02/05 08:11:56;;;;;;;12.00;3.60;;;7.00;99.90;;;;;;5022586;28;20049;-39
2023/02/05 08:14:21;;;;;;;18.02;2.30;;;7.10;99.90;;;;;;5031936;28;20085;-38
2023/02/05 08:16:47;;;;;;;19.10;2.50;;;7.00;99.90;;;;;;5029746;28;20049;-39
2023/02/05 08:19:16;;;;;;;9.55;1.92;;;7.10;99.90;;;;;;5026654;28;20033;-40
2023/02/05 08:21:43;;;;;;;12.02;1.60;;;7.10;99.90;;;;;;5015411;28;20032;-40
2023/02/05 08:24:09;;;;;;;18.75;2.08;;;7.20;99.90;;;;;;5016706;28;20029;-43
2023/02/05 08:26:35;;;;;;;23.90;2.78;;;7.30;99.90;;;;;;5026490;28;20546;-42
2023/02/05 08:29:01;;;;;;;16.35;2.20;;;7.30;99.90;;;;;;5034379;28;20097;-42
2023/02/05 08:31:26;;;;;;;23.52;2.30;;;7.30;99.90;;;;;;5021394;28;20076;-43
2023/02/05 08:33:53;;;;;;;18.33;1.98;;;7.30;99.90;;;;;;5014580;28;20026;-41
2023/02/05 08:36:20;;;;;;;15.82;1.80;;;7.40;99.90;;;;;;5029049;28;20037;-40
2023/02/05 08:38:46;;;;;;;12.10;1.40;;;7.40;99.90;;;;;;5022787;28;20037;-45
2023/02/05 08:41:11;;;;;;;16.00;2.90;;;7.50;99.90;;;;;;5026541;28;20505;-41
2023/02/05 08:43:42;;;;;;;16.75;2.08;;;7.50;99.90;;;;;;5032654;28;20030;-44
2023/02/05 08:46:09;;;;;;;16.08;1.98;;;7.60;99.90;;;;;;5034131;28;20029;-43
2023/02/05 08:48:35;;;;;;;30.35;6.47;;;7.60;99.90;;;;;;5033281;28;20029;-37
2023/02/05 08:51:01;;;;;;;24.95;2.58;;;7.60;99.90;;;;;;5034221;28;20022;-39
2023/02/05 08:53:26;;;;;;;29.83;3.25;;;7.60;99.90;;;;;;5020207;28;20034;-39
2023/02/05 08:55:56;;;;;;;17.60;2.33;;;7.60;99.90;;;;;;5027172;28;20053;-40
2023/02/05 08:58:22;;;;;;;20.58;4.00;;;7.60;99.90;;;;;;5025723;28;20524;-35
2023/02/05 09:00:48;;;;;;;14.45;2.33;;;7.70;99.90;;;;;;5029849;28;20100;-41
2023/02/05 09:03:14;;;;;;;17.98;3.83;;;7.80;99.90;;;;;;5033155;28;20478;-39
2023/02/05 09:05:39;;;;;;;20.70;1.83;;;7.80;99.90;;;;;;5032587;28;20029;-39
2023/02/05 09:08:05;;;;;;;17.73;2.58;;;7.80;99.90;;;;;;5032151;28;20520;-39
2023/02/05 09:10:30;;;;;;;23.13;3.33;;;7.90;99.90;;;;;;5032428;28;20450;-42
2023/02/05 09:12:56;;;;;;;17.60;2.10;;;7.90;99.90;;;;;;5033488;28;20037;-41
2023/02/05 09:15:22;;;;;;;28.92;2.78;;;7.90;99.90;;;;;;5033116;28;20049;-44
2023/02/05 09:17:47;;;;;;;17.55;1.92;;;7.90;99.90;;;;;;5028544;28;20032;-44
2023/02/05 09:20:13;;;;;;;20.60;3.25;;;7.90;99.90;;;;;;5026587;28;20033;-41
2023/02/05 09:22:39;;;;;;;14.13;2.40;;;7.90;99.90;;;;;;5020104;28;20037;-41
2023/02/05 09:25:05;;;;;;;29.48;3.60;;;7.90;99.90;;;;;;5020057;28;20385;-41
2023/02/05 09:27:32;;;;;;;23.45;2.65;;;8.00;99.90;;;;;;5018771;28;20118;-41
2023/02/05 09:29:57;;;;;;;24.17;3.50;;;7.90;99.90;;;;;;5027593;28;20029;-41
2023/02/05 09:32:23;;;;;;;11.95;2.03;;;7.90;99.90;;;;;;5032238;28;20045;-42
2023/02/05 09:34:49;;;;;;;20.77;3.38;;;7.90;99.90;;;;;;5030700;28;20462;-43
2023/02/05 09:37:15;;;;;;;26.60;3.53;;;7.90;99.90;;;;;;5027803;28;20523;-43
2023/02/05 09:39:41;;;;;;;21.92;2.88;;;7.90;99.90;;;;;;5024440;28;20490;-42
2023/02/05 09:42:20;;;;;;;16.42;2.08;;;8.00;99.90;;;;;;5029619;28;20040;-42
2023/02/05 09:44:55;;;;;;;25.13;2.20;;;8.00;99.90;;;;;;5029333;28;20028;-43
2023/02/05 09:47:37;;;;;;;22.80;3.28;;;7.90;99.90;;;;;;5029400;28;20041;-42
2023/02/05 09:50:13;;;;;;;14.07;1.52;;;8.00;99.90;;;;;;5026017;28;20481;-40
2023/02/05 09:52:43;;;;;;;19.38;2.78;;;8.00;99.90;;;;;;5024534;28;20022;-46
2023/02/05 09:55:24;;;;;;;11.90;2.00;;;8.00;99.90;;;;;;5018368;28;20163;-42
2023/02/05 09:57:54;;;;;;;22.35;2.72;;;8.00;99.90;;;;;;5015908;28;20423;-42
2023/02/05 10:00:28;;;;;;;19.63;2.47;;;8.00;99.90;;;;;;5014390;28;20060;-43
2023/02/05 10:03:14;;;;;;;25.52;3.30;;;8.10;99.90;;;;;;5031150;28;20080;-42
2023/02/05 10:05:58;;;;;;;19.05;4.72;;;8.30;99.90;;;;;;5021468;28;20025;-49
2023/02/05 10:08:52;;;;;;;17.95;2.17;;;8.30;99.90;;;;;;5029237;28;20461;-37
2023/02/05 10:11:33;;;;;;;20.95;2.60;;;8.30;99.90;;;;;;5016482;28;20030;-40
2023/02/05 10:14:09;;;;;;;30.58;4.03;;;8.30;99.90;;;;;;5030159;28;20389;-43
2023/02/05 10:17:08;;;;;;;32.38;2.35;;;8.30;99.90;;;;;;5017753;28;20493;-42
2023/02/05 10:20:04;;;;;;;15.02;1.58;;;8.20;99.90;;;;;;5032339;28;20496;-44
2023/02/05 10:23:07;;;;;;;17.55;2.17;;;8.40;99.90;;;;;;5031856;28;20370;-43
2023/02/05 10:25:41;;;;;;;16.70;2.35;;;8.40;99.90;;;;;;4998263;28;20048;-40
2023/02/05 10:28:31;;;;;;;15.85;2.63;;;8.60;99.90;;;;;;5015118;28;20509;-41
2023/02/05 10:31:01;;;;;;;36.38;4.20;;;8.60;99.90;;;;;;5030748;28;20536;-43
2023/02/05 10:33:44;;;;;;;20.67;2.50;;;8.70;99.90;;;;;;5030861;28;20527;-40
2023/02/05 10:36:11;;;;;;;36.67;3.25;;;8.70;99.90;;;;;;5030691;28;20038;-43
2023/02/05 10:38:42;;;;;;;12.45;2.75;;;8.60;99.90;;;;;;5029423;28;20033;-40
2023/02/05 10:41:13;;;;;;;28.60;4.40;;;8.60;99.90;;;;;;5025580;28;20710;-40
2023/02/05 10:43:47;;;;;;;20.45;3.10;;;8.40;99.90;;;;;;5024690;28;20041;-41
2023/02/05 10:46:14;;;;;;;17.65;2.67;;;8.50;99.90;;;;;;5026710;28;20030;-41
2023/02/05 10:49:05;;;;;;;19.95;2.60;;;8.60;99.90;;;;;;5026076;28;20026;-40
2023/02/05 10:51:38;;;;;;;27.83;4.03;;;8.60;99.90;;;;;;5018842;28;20037;-40
2023/02/05 10:54:05;;;;;;;22.55;2.63;;;8.60;99.90;;;;;;5025170;28;20030;-44
2023/02/05 10:56:31;;;;;;;23.45;2.70;;;8.50;99.90;;;;;;5030040;28;20486;-44
2023/02/05 10:59:03;;;;;;;12.70;2.45;;;8.60;99.90;;;;;;5014953;28;20104;-42
2023/02/05 11:01:36;;;;;;;29.58;3.72;;;8.50;99.90;;;;;;5024258;28;20489;-40
2023/02/05 11:04:12;;;;;;;14.57;2.47;;;8.50;99.90;;;;;;5021909;28;20623;-40
2023/02/05 11:06:41;;;;;;;11.32;2.30;;;8.70;99.90;;;;;;5032006;28;20030;-40
2023/02/05 11:09:25;;;;;;;17.30;3.03;;;8.70;99.90;;;;;;5028162;28;20512;-43
2023/02/05 11:11:53;;;;;;;12.75;1.73;;;8.60;99.90;;;;;;5025733;28;20025;-41
2023/02/05 11:14:27;;;;;;;15.82;2.22;;;8.50;99.90;;;;;;5041445;28;20547;-41
2023/02/05 11:16:52;;;;;;;15.23;2.72;;;8.60;99.90;;;;;;5031678;28;20029;-42
2023/02/05 11:19:37;;;;;;;15.25;2.40;;;8.60;99.90;;;;;;5033229;28;20056;-42
2023/02/05 11:22:04;;;;;;;18.02;2.40;;;8.70;99.90;;;;;;5030748;28;20486;-43
2023/02/05 11:24:40;;;;;;;23.80;3.60;;;8.80;99.90;;;;;;5035851;28;20385;-39
2023/02/05 11:27:14;;;;;;;24.55;2.78;;;8.90;99.90;;;;;;5035599;28;20555;-46
2023/02/05 11:29:41;;;;;;;10.35;1.98;;;9.00;99.90;;;;;;5029775;28;20522;-43
2023/02/05 11:32:36;;;;;;;13.07;1.85;;;8.90;99.90;;;;;;5027595;28;20030;-41
2023/02/05 11:35:21;;;;;;;24.60;2.58;;;8.70;99.90;;;;;;5013179;28;20042;-41
2023/02/05 11:38:06;;;;;;;18.30;3.78;;;8.70;99.90;;;;;;5028183;28;20109;-40
2023/02/05 11:40:33;;;;;;;25.50;4.75;;;8.70;99.90;;;;;;5021037;28;20537;-41
2023/02/05 11:43:22;;;;;;;9.25;2.50;;;8.60;99.90;;;;;;5033951;28;20021;-44
2023/02/05 11:45:51;;;;;;;16.63;1.98;;;8.60;99.90;;;;;;5031022;28;20373;-41
2023/02/05 11:48:27;;;;;;;15.38;1.90;;;8.60;99.90;;;;;;5026241;28;20536;-40
2023/02/05 11:50:53;;;;;;;30.85;2.85;;;8.80;99.90;;;;;;5024731;28;20049;-45
2023/02/05 11:53:19;;;;;;;19.20;2.50;;;8.80;99.90;;;;;;5017197;28;20057;-44
2023/02/05 11:55:52;;;;;;;17.10;2.00;;;8.90;99.90;;;;;;5026128;28;20033;-42
2023/02/05 11:58:24;;;;;;;17.13;3.03;;;8.70;99.90;;;;;;5028528;28;20545;-40
2023/02/05 12:01:03;;;;;;;17.35;2.65;;;8.70;99.90;;;;;;5035037;28;20355;-42
2023/02/05 12:03:31;;;;;;;19.50;2.50;;;8.60;99.90;;;;;;5033133;28;20565;-41
2023/02/05 12:06:18;;;;;;;15.35;2.30;;;8.60;99.90;;;;;;5030120;28;20036;-44
2023/02/05 12:08:50;;;;;;;13.85;2.08;;;8.60;99.90;;;;;;5044758;28;20034;-43
2023/02/05 12:11:26;;;;;;;15.77;1.77;;;8.60;99.90;;;;;;5021185;28;20049;-41
2023/02/05 12:14:15;;;;;;;19.65;2.08;;;8.70;99.90;;;;;;5026686;28;20045;-37
2023/02/05 12:17:18;;;;;;;24.52;1.75;;;8.80;99.90;;;;;;5025706;28;20393;-39
2023/02/05 12:19:54;;;;;;;14.05;1.95;;;8.80;99.90;;;;;;5022288;28;20030;-39
2023/02/05 12:22:43;;;;;;;22.50;2.67;;;8.90;99.90;;;;;;5018602;28;20033;-34
2023/02/05 12:25:24;;;;;;;19.48;1.80;;;8.80;99.90;;;;;;5030340;28;20061;-38
2023/02/05 12:28:18;;;;;;;25.50;3.13;;;8.90;99.90;;;;;;5027667;28;20068;-38
2023/02/05 12:31:02;;;;;;;12.00;2.60;;;8.90;99.90;;;;;;5028419;28;20025;-38
2023/02/05 12:33:56;;;;;;;23.60;2.45;;;8.90;99.90;;;;;;5031332;28;20112;-38
2023/02/05 12:36:32;;;;;;;17.08;2.45;;;9.00;99.90;;;;;;5032810;28;20517;-40
2023/02/05 12:39:25;;;;;;;13.73;1.95;;;8.90;99.90;;;;;;5028514;28;20030;-37
2023/02/05 12:42:12;;;;;;;19.92;2.03;;;8.90;99.90;;;;;;5030845;28;20040;-40
2023/02/05 12:45:01;;;;;;;23.95;3.30;;;8.90;99.90;;;;;;5023093;28;20132;-45
2023/02/05 12:47:48;;;;;;;22.58;2.00;;;8.70;99.90;;;;;;5027293;28;20545;-45
2023/02/05 12:50:36;;;;;;;26.45;2.20;;;8.80;99.90;;;;;;5012667;28;20112;-42
2023/02/05 12:53:13;;;;;;;;;;;8.80;99.90;;;;;;5014505;28;20026;-43
2023/02/05 12:55:57;;;;;;;;;;;8.80;99.90;;;;;;5014467;28;19912;-43
2023/02/05 12:58:32;;;;;;;23.02;4.28;;;9.00;99.90;;;;;;5013497;28;20266;-42
2023/02/05 13:01:05;;;;;;;16.25;1.67;;;9.00;99.90;;;;;;5013677;28;20017;-44
2023/02/05 13:03:38;;;;;;;23.85;2.70;;;9.00;99.90;;;;;;5028558;28;20068;-45
2023/02/05 13:06:13;;;;;;;17.45;2.33;;;8.90;99.90;;;;;;5033394;28;20057;-43
2023/02/05 13:08:54;;;;;;;22.40;2.65;;;9.00;99.90;;;;;;5023785;28;20433;-43
2023/02/05 13:11:23;;;;;;;14.27;2.28;;;8.90;99.90;;;;;;5013896;28;20153;-39
2023/02/05 13:14:18;;;;;;;12.50;1.88;;;9.00;99.90;;;;;;5027773;28;20052;-37
2023/02/05 13:17:00;;;;;;;19.00;3.70;;;9.10;99.90;;;;;;5028509;28;20037;-38
2023/02/05 13:19:32;;;;;;;12.32;2.28;;;9.10;99.90;;;;;;5033400;28;20064;-40